sensor_id;sensor_type;location;lat;lon;timestamp;P1;durP1;ratioP1;P2;durP2;ratioP2
40373;SDS011;26079;45.958;12.492;2023-03-23T00:00:46;36.88;;;29.73;;
40373;SDS011;26079;45.958;12.492;2023-03-23T00:03:12;40.45;;;30.65;;
40373;SDS011;26079;45.958;12.492;2023-03-23T00:05:38;36.20;;;31.77;;
40373;SDS011;26079;45.958;12.492;2023-03-23T00:08:06;34.53;;;29.10;;
40373;SDS011;26079;45.958;12.492;2023-03-23T00:10:34;38.15;;;30.05;;
40373;SDS011;26079;45.958;12.492;2023-03-23T00:13:00;32.78;;;28.98;;
40373;SDS011;26079;45.958;12.492;2023-03-23T00:15:29;38.08;;;30.38;;
40373;SDS011;26079;45.958;12.492;2023-03-23T00:17:58;42.70;;;31.00;;
40373;SDS011;26079;45.958;12.492;2023-03-23T00:20:27;36.65;;;30.73;;
40373;SDS011;26079;45.958;12.492;2023-03-23T00:22:54;36.03;;;27.98;;
40373;SDS011;26079;45.958;12.492;2023-03-23T00:25:25;36.22;;;31.10;;
40373;SDS011;26079;45.958;12.492;2023-03-23T00:27:51;42.10;;;31.23;;
40373;SDS011;26079;45.958;12.492;2023-03-23T00:30:16;34.55;;;30.27;;
40373;SDS011;26079;45.958;12.492;2023-03-23T00:32:43;32.88;;;28.17;;
40373;SDS011;26079;45.958;12.492;2023-03-23T00:35:08;41.00;;;32.28;;
40373;SDS011;26079;45.958;12.492;2023-03-23T00:37:34;40.42;;;31.85;;
40373;SDS011;26079;45.958;12.492;2023-03-23T00:40:01;38.88;;;30.65;;
40373;SDS011;26079;45.958;12.492;2023-03-23T00:42:31;35.08;;;30.63;;
40373;SDS011;26079;45.958;12.492;2023-03-23T00:45:02;35.40;;;30.83;;
40373;SDS011;26079;45.958;12.492;2023-03-23T00:47:35;34.70;;;29.63;;
40373;SDS011;26079;45.958;12.492;2023-03-23T00:50:05;37.05;;;32.00;;
40373;SDS011;26079;45.958;12.492;2023-03-23T00:52:31;36.47;;;30.42;;
40373;SDS011;26079;45.958;12.492;2023-03-23T00:54:57;33.80;;;29.50;;
40373;SDS011;26079;45.958;12.492;2023-03-23T00:57:23;34.60;;;30.70;;
40373;SDS011;26079;45.958;12.492;2023-03-23T00:59:50;35.97;;;31.17;;
40373;SDS011;26079;45.958;12.492;2023-03-23T01:02:16;37.03;;;31.50;;
40373;SDS011;26079;45.958;12.492;2023-03-23T01:04:43;35.97;;;30.98;;
40373;SDS011;26079;45.958;12.492;2023-03-23T01:07:10;41.05;;;31.02;;
40373;SDS011;26079;45.958;12.492;2023-03-23T01:09:39;40.92;;;29.67;;
40373;SDS011;26079;45.958;12.492;2023-03-23T01:12:05;38.65;;;29.88;;
40373;SDS011;26079;45.958;12.492;2023-03-23T01:14:31;36.63;;;30.52;;
40373;SDS011;26079;45.958;12.492;2023-03-23T01:16:57;35.63;;;31.35;;
40373;SDS011;26079;45.958;12.492;2023-03-23T01:19:22;40.22;;;32.00;;
40373;SDS011;26079;45.958;12.492;2023-03-23T01:21:48;36.65;;;30.75;;
40373;SDS011;26079;45.958;12.492;2023-03-23T01:24:14;37.50;;;31.05;;
40373;SDS011;26079;45.958;12.492;2023-03-23T01:26:40;37.22;;;31.13;;
40373;SDS011;26079;45.958;12.492;2023-03-23T01:29:06;40.92;;;32.28;;
40373;SDS011;26079;45.958;12.492;2023-03-23T01:31:32;42.90;;;32.60;;
40373;SDS011;26079;45.958;12.492;2023-03-23T01:33:59;46.05;;;34.45;;
40373;SDS011;26079;45.958;12.492;2023-03-23T01:36:26;40.78;;;33.72;;
40373;SDS011;26079;45.958;12.492;2023-03-23T01:38:54;42.88;;;33.50;;
40373;SDS011;26079;45.958;12.492;2023-03-23T01:41:20;39.47;;;32.45;;
40373;SDS011;26079;45.958;12.492;2023-03-23T01:46:33;43.10;;;35.50;;
40373;SDS011;26079;45.958;12.492;2023-03-23T01:49:06;37.85;;;33.65;;
40373;SDS011;26079;45.958;12.492;2023-03-23T01:54:42;44.00;;;33.38;;
40373;SDS011;26079;45.958;12.492;2023-03-23T01:57:11;42.25;;;31.85;;
40373;SDS011;26079;45.958;12.492;2023-03-23T01:59:40;40.03;;;32.08;;
40373;SDS011;26079;45.958;12.492;2023-03-23T02:02:08;36.25;;;30.83;;
40373;SDS011;26079;45.958;12.492;2023-03-23T02:04:35;38.55;;;32.30;;
40373;SDS011;26079;45.958;12.492;2023-03-23T02:07:01;41.20;;;32.45;;
40373;SDS011;26079;45.958;12.492;2023-03-23T02:09:28;40.53;;;33.15;;
40373;SDS011;26079;45.958;12.492;2023-03-23T02:11:54;36.10;;;31.35;;
40373;SDS011;26079;45.958;12.492;2023-03-23T02:14:20;35.35;;;30.40;;
40373;SDS011;26079;45.958;12.492;2023-03-23T02:17:07;37.75;;;30.35;;
40373;SDS011;26079;45.958;12.492;2023-03-23T02:33:29;34.47;;;28.45;;
40373;SDS011;26079;45.958;12.492;2023-03-23T02:39:09;32.75;;;28.55;;
40373;SDS011;26079;45.958;12.492;2023-03-23T02:42:12;36.40;;;26.85;;
40373;SDS011;26079;45.958;12.492;2023-03-23T02:44:32;31.73;;;27.05;;
40373;SDS011;26079;45.958;12.492;2023-03-23T02:47:02;34.58;;;27.38;;
40373;SDS011;26079;45.958;12.492;2023-03-23T02:49:32;36.20;;;27.20;;
40373;SDS011;26079;45.958;12.492;2023-03-23T02:52:01;32.42;;;28.77;;
40373;SDS011;26079;45.958;12.492;2023-03-23T02:54:30;30.77;;;26.85;;
40373;SDS011;26079;45.958;12.492;2023-03-23T02:56:56;36.38;;;27.02;;
40373;SDS011;26079;45.958;12.492;2023-03-23T02:59:23;30.20;;;26.67;;
40373;SDS011;26079;45.958;12.492;2023-03-23T03:01:50;34.25;;;29.33;;
40373;SDS011;26079;45.958;12.492;2023-03-23T03:04:22;32.15;;;28.77;;
40373;SDS011;26079;45.958;12.492;2023-03-23T03:09:36;35.63;;;28.80;;
40373;SDS011;26079;45.958;12.492;2023-03-23T03:12:18;33.80;;;27.77;;
40373;SDS011;26079;45.958;12.492;2023-03-23T03:17:51;36.08;;;28.13;;
40373;SDS011;26079;45.958;12.492;2023-03-23T03:20:23;30.27;;;26.67;;
40373;SDS011;26079;45.958;12.492;2023-03-23T03:22:51;36.83;;;27.02;;
40373;SDS011;26079;45.958;12.492;2023-03-23T03:25:18;33.13;;;27.10;;
40373;SDS011;26079;45.958;12.492;2023-03-23T03:27:45;32.95;;;27.63;;
40373;SDS011;26079;45.958;12.492;2023-03-23T03:30:15;34.58;;;27.55;;
40373;SDS011;26079;45.958;12.492;2023-03-23T03:32:46;31.73;;;25.73;;
40373;SDS011;26079;45.958;12.492;2023-03-23T03:35:16;33.03;;;29.38;;
40373;SDS011;26079;45.958;12.492;2023-03-23T03:37:43;37.05;;;30.05;;
40373;SDS011;26079;45.958;12.492;2023-03-23T03:40:11;34.35;;;26.92;;
40373;SDS011;26079;45.958;12.492;2023-03-23T03:42:39;29.25;;;26.08;;
40373;SDS011;26079;45.958;12.492;2023-03-23T03:45:07;38.63;;;30.67;;
40373;SDS011;26079;45.958;12.492;2023-03-23T03:47:34;34.40;;;29.48;;
40373;SDS011;26079;45.958;12.492;2023-03-23T03:50:00;37.35;;;27.42;;
40373;SDS011;26079;45.958;12.492;2023-03-23T03:52:26;32.03;;;26.38;;
40373;SDS011;26079;45.958;12.492;2023-03-23T03:54:52;35.15;;;26.20;;
40373;SDS011;26079;45.958;12.492;2023-03-23T03:57:18;40.85;;;27.73;;
40373;SDS011;26079;45.958;12.492;2023-03-23T03:59:46;30.85;;;26.60;;
40373;SDS011;26079;45.958;12.492;2023-03-23T04:02:12;31.75;;;26.60;;
40373;SDS011;26079;45.958;12.492;2023-03-23T04:04:41;35.33;;;29.17;;
40373;SDS011;26079;45.958;12.492;2023-03-23T04:07:08;32.65;;;28.50;;
40373;SDS011;26079;45.958;12.492;2023-03-23T04:09:38;36.35;;;28.05;;
40373;SDS011;26079;45.958;12.492;2023-03-23T04:12:05;33.72;;;30.15;;
40373;SDS011;26079;45.958;12.492;2023-03-23T04:14:30;34.47;;;29.80;;
40373;SDS011;26079;45.958;12.492;2023-03-23T04:16:56;34.22;;;28.27;;
40373;SDS011;26079;45.958;12.492;2023-03-23T04:19:24;37.13;;;30.10;;
40373;SDS011;26079;45.958;12.492;2023-03-23T04:21:50;36.38;;;29.17;;
40373;SDS011;26079;45.958;12.492;2023-03-23T04:24:16;34.97;;;27.10;;
40373;SDS011;26079;45.958;12.492;2023-03-23T04:26:46;30.17;;;26.67;;
40373;SDS011;26079;45.958;12.492;2023-03-23T04:29:12;29.70;;;26.35;;
40373;SDS011;26079;45.958;12.492;2023-03-23T04:31:38;35.83;;;29.27;;
40373;SDS011;26079;45.958;12.492;2023-03-23T04:34:04;32.25;;;27.17;;
40373;SDS011;26079;45.958;12.492;2023-03-23T04:36:30;37.70;;;29.33;;
40373;SDS011;26079;45.958;12.492;2023-03-23T04:38:58;32.70;;;28.20;;
40373;SDS011;26079;45.958;12.492;2023-03-23T04:41:25;34.70;;;27.33;;
40373;SDS011;26079;45.958;12.492;2023-03-23T04:43:51;32.55;;;27.38;;
40373;SDS011;26079;45.958;12.492;2023-03-23T04:46:19;31.02;;;26.45;;
40373;SDS011;26079;45.958;12.492;2023-03-23T04:48:46;37.20;;;32.65;;
40373;SDS011;26079;45.958;12.492;2023-03-23T04:51:12;37.17;;;32.70;;
40373;SDS011;26079;45.958;12.492;2023-03-23T04:53:38;35.80;;;31.00;;
40373;SDS011;26079;45.958;12.492;2023-03-23T04:56:04;31.90;;;28.20;;
40373;SDS011;26079;45.958;12.492;2023-03-23T04:58:29;33.45;;;28.05;;
40373;SDS011;26079;45.958;12.492;2023-03-23T05:00:58;37.63;;;28.63;;
40373;SDS011;26079;45.958;12.492;2023-03-23T05:03:25;32.85;;;29.33;;
40373;SDS011;26079;45.958;12.492;2023-03-23T05:05:52;33.42;;;28.35;;
40373;SDS011;26079;45.958;12.492;2023-03-23T05:08:21;40.63;;;28.80;;
40373;SDS011;26079;45.958;12.492;2023-03-23T05:10:56;32.13;;;28.23;;
40373;SDS011;26079;45.958;12.492;2023-03-23T05:13:23;34.53;;;27.55;;
40373;SDS011;26079;45.958;12.492;2023-03-23T05:15:48;37.30;;;29.75;;
40373;SDS011;26079;45.958;12.492;2023-03-23T05:18:14;32.67;;;29.02;;
40373;SDS011;26079;45.958;12.492;2023-03-23T05:20:40;37.13;;;29.00;;
40373;SDS011;26079;45.958;12.492;2023-03-23T05:23:07;33.55;;;30.05;;
40373;SDS011;26079;45.958;12.492;2023-03-23T05:25:34;36.03;;;30.73;;
40373;SDS011;26079;45.958;12.492;2023-03-23T05:28:04;38.30;;;28.88;;
40373;SDS011;26079;45.958;12.492;2023-03-23T05:30:34;36.15;;;29.23;;
40373;SDS011;26079;45.958;12.492;2023-03-23T05:33:02;31.73;;;28.08;;
40373;SDS011;26079;45.958;12.492;2023-03-23T05:35:28;35.45;;;30.30;;
40373;SDS011;26079;45.958;12.492;2023-03-23T05:37:54;35.70;;;28.65;;
40373;SDS011;26079;45.958;12.492;2023-03-23T05:40:22;34.42;;;29.17;;
40373;SDS011;26079;45.958;12.492;2023-03-23T05:42:50;32.88;;;29.33;;
40373;SDS011;26079;45.958;12.492;2023-03-23T05:45:16;34.78;;;27.25;;
40373;SDS011;26079;45.958;12.492;2023-03-23T05:47:43;33.20;;;27.80;;
40373;SDS011;26079;45.958;12.492;2023-03-23T05:50:09;32.25;;;28.85;;
40373;SDS011;26079;45.958;12.492;2023-03-23T05:52:35;35.78;;;30.08;;
40373;SDS011;26079;45.958;12.492;2023-03-23T05:55:02;31.95;;;27.30;;
40373;SDS011;26079;45.958;12.492;2023-03-23T05:57:29;38.28;;;30.35;;
40373;SDS011;26079;45.958;12.492;2023-03-23T05:59:56;35.25;;;26.67;;
40373;SDS011;26079;45.958;12.492;2023-03-23T06:02:22;31.52;;;25.35;;
40373;SDS011;26079;45.958;12.492;2023-03-23T06:04:49;34.92;;;27.10;;
40373;SDS011;26079;45.958;12.492;2023-03-23T06:07:22;40.72;;;27.90;;
40373;SDS011;26079;45.958;12.492;2023-03-23T06:09:51;35.00;;;28.42;;
40373;SDS011;26079;45.958;12.492;2023-03-23T06:12:17;33.53;;;27.27;;
40373;SDS011;26079;45.958;12.492;2023-03-23T06:14:45;34.53;;;29.15;;
40373;SDS011;26079;45.958;12.492;2023-03-23T06:17:11;36.67;;;28.38;;
40373;SDS011;26079;45.958;12.492;2023-03-23T06:19:38;36.25;;;27.83;;
40373;SDS011;26079;45.958;12.492;2023-03-23T06:22:04;36.25;;;27.77;;
40373;SDS011;26079;45.958;12.492;2023-03-23T06:24:30;31.77;;;28.33;;
40373;SDS011;26079;45.958;12.492;2023-03-23T06:26:57;34.97;;;29.50;;
40373;SDS011;26079;45.958;12.492;2023-03-23T06:29:24;41.53;;;31.65;;
40373;SDS011;26079;45.958;12.492;2023-03-23T06:31:55;32.38;;;28.75;;
40373;SDS011;26079;45.958;12.492;2023-03-23T06:34:22;39.50;;;31.27;;
40373;SDS011;26079;45.958;12.492;2023-03-23T06:36:54;31.25;;;27.70;;
40373;SDS011;26079;45.958;12.492;2023-03-23T06:39:27;35.13;;;29.42;;
40373;SDS011;26079;45.958;12.492;2023-03-23T06:41:58;36.30;;;29.70;;
40373;SDS011;26079;45.958;12.492;2023-03-23T06:44:43;37.80;;;29.35;;
40373;SDS011;26079;45.958;12.492;2023-03-23T06:47:10;61.95;;;42.50;;
40373;SDS011;26079;45.958;12.492;2023-03-23T06:49:35;34.53;;;29.63;;
40373;SDS011;26079;45.958;12.492;2023-03-23T06:52:01;32.75;;;29.02;;
40373;SDS011;26079;45.958;12.492;2023-03-23T06:54:28;38.40;;;29.73;;
40373;SDS011;26079;45.958;12.492;2023-03-23T06:56:54;34.55;;;30.13;;
40373;SDS011;26079;45.958;12.492;2023-03-23T06:59:20;33.95;;;28.10;;
40373;SDS011;26079;45.958;12.492;2023-03-23T07:01:46;34.58;;;29.25;;
40373;SDS011;26079;45.958;12.492;2023-03-23T07:04:13;41.60;;;29.52;;
40373;SDS011;26079;45.958;12.492;2023-03-23T07:06:39;35.92;;;28.60;;
40373;SDS011;26079;45.958;12.492;2023-03-23T07:09:05;35.85;;;29.70;;
40373;SDS011;26079;45.958;12.492;2023-03-23T07:11:31;36.88;;;30.23;;
40373;SDS011;26079;45.958;12.492;2023-03-23T07:13:57;38.67;;;31.48;;
40373;SDS011;26079;45.958;12.492;2023-03-23T07:16:23;35.30;;;31.50;;
40373;SDS011;26079;45.958;12.492;2023-03-23T07:18:48;38.10;;;31.15;;
40373;SDS011;26079;45.958;12.492;2023-03-23T07:21:14;35.15;;;29.60;;
40373;SDS011;26079;45.958;12.492;2023-03-23T07:23:40;38.17;;;30.90;;
40373;SDS011;26079;45.958;12.492;2023-03-23T07:26:06;39.15;;;29.20;;
40373;SDS011;26079;45.958;12.492;2023-03-23T07:28:32;35.53;;;30.63;;
40373;SDS011;26079;45.958;12.492;2023-03-23T07:30:58;32.97;;;29.45;;
40373;SDS011;26079;45.958;12.492;2023-03-23T07:33:24;45.15;;;30.60;;
40373;SDS011;26079;45.958;12.492;2023-03-23T07:35:49;40.63;;;32.33;;
40373;SDS011;26079;45.958;12.492;2023-03-23T07:38:15;37.25;;;30.60;;
40373;SDS011;26079;45.958;12.492;2023-03-23T07:40:41;38.08;;;32.63;;
40373;SDS011;26079;45.958;12.492;2023-03-23T07:43:06;36.42;;;32.03;;
40373;SDS011;26079;45.958;12.492;2023-03-23T07:45:32;39.85;;;33.45;;
40373;SDS011;26079;45.958;12.492;2023-03-23T07:47:58;36.88;;;32.30;;
40373;SDS011;26079;45.958;12.492;2023-03-23T07:50:24;42.20;;;35.70;;
40373;SDS011;26079;45.958;12.492;2023-03-23T07:52:53;38.35;;;34.20;;
40373;SDS011;26079;45.958;12.492;2023-03-23T07:55:19;37.40;;;32.17;;
40373;SDS011;26079;45.958;12.492;2023-03-23T07:57:46;40.90;;;33.92;;
40373;SDS011;26079;45.958;12.492;2023-03-23T08:00:13;37.13;;;32.25;;
40373;SDS011;26079;45.958;12.492;2023-03-23T08:02:44;36.65;;;32.03;;
40373;SDS011;26079;45.958;12.492;2023-03-23T08:05:13;37.17;;;33.20;;
40373;SDS011;26079;45.958;12.492;2023-03-23T08:07:40;44.08;;;32.63;;
40373;SDS011;26079;45.958;12.492;2023-03-23T08:10:08;43.03;;;33.13;;
40373;SDS011;26079;45.958;12.492;2023-03-23T08:12:38;43.53;;;33.58;;
40373;SDS011;26079;45.958;12.492;2023-03-23T08:15:05;38.63;;;34.38;;
40373;SDS011;26079;45.958;12.492;2023-03-23T08:17:32;42.20;;;33.80;;
40373;SDS011;26079;45.958;12.492;2023-03-23T08:19:59;37.78;;;32.85;;
40373;SDS011;26079;45.958;12.492;2023-03-23T08:22:33;38.13;;;33.13;;
40373;SDS011;26079;45.958;12.492;2023-03-23T08:25:00;39.80;;;32.25;;
40373;SDS011;26079;45.958;12.492;2023-03-23T08:27:28;35.65;;;31.50;;
40373;SDS011;26079;45.958;12.492;2023-03-23T08:29:56;39.42;;;32.60;;
40373;SDS011;26079;45.958;12.492;2023-03-23T08:32:22;39.45;;;31.92;;
40373;SDS011;26079;45.958;12.492;2023-03-23T08:34:48;41.35;;;32.35;;
40373;SDS011;26079;45.958;12.492;2023-03-23T08:37:15;40.78;;;31.70;;
40373;SDS011;26079;45.958;12.492;2023-03-23T08:39:41;38.70;;;31.42;;
40373;SDS011;26079;45.958;12.492;2023-03-23T08:42:08;42.08;;;31.45;;
40373;SDS011;26079;45.958;12.492;2023-03-23T08:44:34;39.38;;;32.10;;
40373;SDS011;26079;45.958;12.492;2023-03-23T08:47:01;38.50;;;30.63;;
40373;SDS011;26079;45.958;12.492;2023-03-23T08:49:28;34.72;;;31.02;;
40373;SDS011;26079;45.958;12.492;2023-03-23T08:51:57;38.13;;;30.52;;
40373;SDS011;26079;45.958;12.492;2023-03-23T08:54:24;38.42;;;30.73;;
40373;SDS011;26079;45.958;12.492;2023-03-23T08:56:50;33.85;;;30.17;;
40373;SDS011;26079;45.958;12.492;2023-03-23T08:59:16;33.70;;;30.05;;
40373;SDS011;26079;45.958;12.492;2023-03-23T09:01:41;35.15;;;30.77;;
40373;SDS011;26079;45.958;12.492;2023-03-23T09:04:07;35.88;;;32.22;;
40373;SDS011;26079;45.958;12.492;2023-03-23T09:06:34;38.45;;;30.85;;
40373;SDS011;26079;45.958;12.492;2023-03-23T09:09:04;35.72;;;30.98;;
40373;SDS011;26079;45.958;12.492;2023-03-23T09:11:34;35.83;;;29.63;;
40373;SDS011;26079;45.958;12.492;2023-03-23T09:14:01;37.85;;;30.65;;
40373;SDS011;26079;45.958;12.492;2023-03-23T09:16:28;44.28;;;30.88;;
40373;SDS011;26079;45.958;12.492;2023-03-23T09:18:54;35.97;;;32.28;;
40373;SDS011;26079;45.958;12.492;2023-03-23T09:21:21;41.10;;;30.50;;
40373;SDS011;26079;45.958;12.492;2023-03-23T09:23:48;34.55;;;30.33;;
40373;SDS011;26079;45.958;12.492;2023-03-23T09:26:14;33.95;;;30.00;;
40373;SDS011;26079;45.958;12.492;2023-03-23T09:28:40;32.00;;;28.73;;
40373;SDS011;26079;45.958;12.492;2023-03-23T09:31:06;33.20;;;29.50;;
40373;SDS011;26079;45.958;12.492;2023-03-23T09:33:32;33.03;;;29.70;;
40373;SDS011;26079;45.958;12.492;2023-03-23T09:36:01;33.60;;;30.25;;
40373;SDS011;26079;45.958;12.492;2023-03-23T09:38:27;32.63;;;29.10;;
40373;SDS011;26079;45.958;12.492;2023-03-23T09:49:01;35.15;;;29.45;;
40373;SDS011;26079;45.958;12.492;2023-03-23T09:51:50;38.45;;;31.02;;
40373;SDS011;26079;45.958;12.492;2023-03-23T09:54:21;33.03;;;29.40;;
40373;SDS011;26079;45.958;12.492;2023-03-23T09:56:52;35.90;;;29.63;;
40373;SDS011;26079;45.958;12.492;2023-03-23T09:59:36;37.13;;;29.83;;
40373;SDS011;26079;45.958;12.492;2023-03-23T10:04:54;33.85;;;29.08;;
40373;SDS011;26079;45.958;12.492;2023-03-23T10:07:24;35.00;;;30.70;;
40373;SDS011;26079;45.958;12.492;2023-03-23T10:09:55;32.42;;;29.13;;
40373;SDS011;26079;45.958;12.492;2023-03-23T10:15:20;34.22;;;30.60;;
40373;SDS011;26079;45.958;12.492;2023-03-23T10:21:01;38.70;;;31.05;;
40373;SDS011;26079;45.958;12.492;2023-03-23T10:29:08;33.95;;;30.35;;
40373;SDS011;26079;45.958;12.492;2023-03-23T10:32:22;35.17;;;29.02;;
40373;SDS011;26079;45.958;12.492;2023-03-23T10:34:55;35.08;;;28.25;;
40373;SDS011;26079;45.958;12.492;2023-03-23T10:37:31;42.67;;;29.52;;
40373;SDS011;26079;45.958;12.492;2023-03-23T10:40:02;30.45;;;27.17;;
40373;SDS011;26079;45.958;12.492;2023-03-23T10:42:34;32.22;;;28.73;;
40373;SDS011;26079;45.958;12.492;2023-03-23T10:48:01;27.73;;;24.85;;
40373;SDS011;26079;45.958;12.492;2023-03-23T10:50:31;30.83;;;27.50;;
40373;SDS011;26079;45.958;12.492;2023-03-23T10:52:59;30.40;;;27.30;;
40373;SDS011;26079;45.958;12.492;2023-03-23T10:55:36;29.38;;;25.10;;
40373;SDS011;26079;45.958;12.492;2023-03-23T10:58:05;32.03;;;25.05;;
40373;SDS011;26079;45.958;12.492;2023-03-23T11:00:39;36.85;;;26.20;;
40373;SDS011;26079;45.958;12.492;2023-03-23T11:05:42;28.77;;;25.77;;
40373;SDS011;26079;45.958;12.492;2023-03-23T11:08:16;34.17;;;24.38;;
40373;SDS011;26079;45.958;12.492;2023-03-23T11:13:49;26.08;;;23.50;;
40373;SDS011;26079;45.958;12.492;2023-03-23T11:16:43;29.65;;;24.02;;
40373;SDS011;26079;45.958;12.492;2023-03-23T11:19:15;25.38;;;22.95;;
40373;SDS011;26079;45.958;12.492;2023-03-23T11:21:49;25.98;;;23.25;;
40373;SDS011;26079;45.958;12.492;2023-03-23T11:24:17;25.42;;;22.77;;
40373;SDS011;26079;45.958;12.492;2023-03-23T11:26:44;23.25;;;19.05;;
40373;SDS011;26079;45.958;12.492;2023-03-23T11:29:13;23.58;;;21.20;;
40373;SDS011;26079;45.958;12.492;2023-03-23T11:31:49;21.23;;;19.13;;
40373;SDS011;26079;45.958;12.492;2023-03-23T11:34:24;23.88;;;21.48;;
40373;SDS011;26079;45.958;12.492;2023-03-23T11:37:00;23.83;;;19.75;;
40373;SDS011;26079;45.958;12.492;2023-03-23T11:39:29;21.90;;;19.60;;
40373;SDS011;26079;45.958;12.492;2023-03-23T11:41:58;20.42;;;18.27;;
40373;SDS011;26079;45.958;12.492;2023-03-23T11:44:42;20.98;;;18.75;;
40373;SDS011;26079;45.958;12.492;2023-03-23T11:47:32;21.85;;;18.45;;
40373;SDS011;26079;45.958;12.492;2023-03-23T11:52:59;23.02;;;18.52;;
40373;SDS011;26079;45.958;12.492;2023-03-23T11:58:17;29.05;;;18.13;;
40373;SDS011;26079;45.958;12.492;2023-03-23T12:00:49;18.70;;;14.82;;
40373;SDS011;26079;45.958;12.492;2023-03-23T12:03:20;20.40;;;13.32;;
40373;SDS011;26079;45.958;12.492;2023-03-23T12:11:48;17.35;;;11.88;;
40373;SDS011;26079;45.958;12.492;2023-03-23T12:17:00;14.95;;;13.10;;
40373;SDS011;26079;45.958;12.492;2023-03-23T12:30:40;19.02;;;10.85;;
40373;SDS011;26079;45.958;12.492;2023-03-23T12:38:57;10.33;;;8.60;;
40373;SDS011;26079;45.958;12.492;2023-03-23T12:44:35;12.50;;;10.35;;
40373;SDS011;26079;45.958;12.492;2023-03-23T12:53:02;11.20;;;10.02;;
40373;SDS011;26079;45.958;12.492;2023-03-23T12:55:36;12.90;;;9.88;;
40373;SDS011;26079;45.958;12.492;2023-03-23T12:58:10;13.18;;;10.98;;
40373;SDS011;26079;45.958;12.492;2023-03-23T13:03:26;15.75;;;11.70;;
40373;SDS011;26079;45.958;12.492;2023-03-23T13:08:55;12.45;;;11.25;;
40373;SDS011;26079;45.958;12.492;2023-03-23T13:11:42;14.73;;;13.05;;
40373;SDS011;26079;45.958;12.492;2023-03-23T13:15:13;13.80;;;12.40;;
40373;SDS011;26079;45.958;12.492;2023-03-23T13:20:19;12.25;;;11.05;;
40373;SDS011;26079;45.958;12.492;2023-03-23T13:23:15;12.95;;;11.45;;
40373;SDS011;26079;45.958;12.492;2023-03-23T13:26:13;13.27;;;11.45;;
40373;SDS011;26079;45.958;12.492;2023-03-23T13:31:26;13.73;;;12.07;;
40373;SDS011;26079;45.958;12.492;2023-03-23T13:34:01;16.45;;;12.02;;
40373;SDS011;26079;45.958;12.492;2023-03-23T13:36:37;11.85;;;10.73;;
40373;SDS011;26079;45.958;12.492;2023-03-23T13:39:16;11.65;;;10.50;;
40373;SDS011;26079;45.958;12.492;2023-03-23T13:49:53;14.98;;;12.05;;
40373;SDS011;26079;45.958;12.492;2023-03-23T13:53:12;13.38;;;11.75;;
40373;SDS011;26079;45.958;12.492;2023-03-23T13:55:21;21.17;;;13.07;;
40373;SDS011;26079;45.958;12.492;2023-03-23T13:57:54;16.50;;;14.07;;
40373;SDS011;26079;45.958;12.492;2023-03-23T14:01:00;16.17;;;13.95;;
40373;SDS011;26079;45.958;12.492;2023-03-23T14:03:45;16.38;;;13.82;;
40373;SDS011;26079;45.958;12.492;2023-03-23T14:06:16;17.25;;;14.25;;
40373;SDS011;26079;45.958;12.492;2023-03-23T14:08:46;17.75;;;13.23;;
40373;SDS011;26079;45.958;12.492;2023-03-23T14:11:24;15.45;;;13.82;;
40373;SDS011;26079;45.958;12.492;2023-03-23T14:14:12;16.80;;;14.32;;
40373;SDS011;26079;45.958;12.492;2023-03-23T14:16:48;17.70;;;15.90;;
40373;SDS011;26079;45.958;12.492;2023-03-23T14:21:57;22.23;;;17.33;;
40373;SDS011;26079;45.958;12.492;2023-03-23T14:24:29;17.67;;;14.73;;
40373;SDS011;26079;45.958;12.492;2023-03-23T14:27:08;19.15;;;16.45;;
40373;SDS011;26079;45.958;12.492;2023-03-23T14:29:37;21.75;;;19.45;;
40373;SDS011;26079;45.958;12.492;2023-03-23T14:32:05;20.02;;;18.00;;
40373;SDS011;26079;45.958;12.492;2023-03-23T14:34:32;21.45;;;18.05;;
40373;SDS011;26079;45.958;12.492;2023-03-23T14:36:59;19.67;;;17.55;;
40373;SDS011;26079;45.958;12.492;2023-03-23T14:39:30;28.33;;;21.23;;
40373;SDS011;26079;45.958;12.492;2023-03-23T14:42:12;23.63;;;18.60;;
40373;SDS011;26079;45.958;12.492;2023-03-23T14:44:49;21.35;;;17.15;;
40373;SDS011;26079;45.958;12.492;2023-03-23T14:47:18;19.52;;;16.00;;
40373;SDS011;26079;45.958;12.492;2023-03-23T14:49:47;19.75;;;16.88;;
40373;SDS011;26079;45.958;12.492;2023-03-23T14:52:23;20.33;;;16.10;;
40373;SDS011;26079;45.958;12.492;2023-03-23T14:55:14;21.83;;;17.75;;
40373;SDS011;26079;45.958;12.492;2023-03-23T14:57:45;20.48;;;15.38;;
40373;SDS011;26079;45.958;12.492;2023-03-23T15:00:34;20.10;;;17.92;;
40373;SDS011;26079;45.958;12.492;2023-03-23T15:03:01;19.05;;;16.13;;
40373;SDS011;26079;45.958;12.492;2023-03-23T15:05:30;21.98;;;16.77;;
40373;SDS011;26079;45.958;12.492;2023-03-23T15:08:14;20.90;;;16.85;;
40373;SDS011;26079;45.958;12.492;2023-03-23T15:10:51;19.33;;;17.27;;
40373;SDS011;26079;45.958;12.492;2023-03-23T15:13:32;25.35;;;16.90;;
40373;SDS011;26079;45.958;12.492;2023-03-23T15:16:04;20.25;;;16.73;;
40373;SDS011;26079;45.958;12.492;2023-03-23T15:18:36;24.85;;;17.30;;
40373;SDS011;26079;45.958;12.492;2023-03-23T15:21:11;20.27;;;17.02;;
40373;SDS011;26079;45.958;12.492;2023-03-23T15:23:45;17.77;;;15.93;;
40373;SDS011;26079;45.958;12.492;2023-03-23T15:26:23;22.35;;;16.48;;
40373;SDS011;26079;45.958;12.492;2023-03-23T15:28:58;21.70;;;18.70;;
40373;SDS011;26079;45.958;12.492;2023-03-23T15:34:10;17.95;;;16.05;;
40373;SDS011;26079;45.958;12.492;2023-03-23T15:36:50;29.13;;;17.45;;
40373;SDS011;26079;45.958;12.492;2023-03-23T15:39:40;23.85;;;16.88;;
40373;SDS011;26079;45.958;12.492;2023-03-23T15:42:06;21.02;;;16.08;;
40373;SDS011;26079;45.958;12.492;2023-03-23T15:44:44;20.85;;;14.30;;
40373;SDS011;26079;45.958;12.492;2023-03-23T15:50:17;14.43;;;9.65;;
40373;SDS011;26079;45.958;12.492;2023-03-23T15:52:45;8.88;;;7.70;;
40373;SDS011;26079;45.958;12.492;2023-03-23T15:57:48;7.95;;;6.22;;
40373;SDS011;26079;45.958;12.492;2023-03-23T16:00:15;6.53;;;5.78;;
40373;SDS011;26079;45.958;12.492;2023-03-23T16:02:42;8.07;;;6.07;;
40373;SDS011;26079;45.958;12.492;2023-03-23T16:05:14;10.27;;;5.20;;
40373;SDS011;26079;45.958;12.492;2023-03-23T16:07:40;7.85;;;6.55;;
40373;SDS011;26079;45.958;12.492;2023-03-23T16:10:06;7.95;;;5.53;;
40373;SDS011;26079;45.958;12.492;2023-03-23T16:12:38;13.30;;;6.60;;
40373;SDS011;26079;45.958;12.492;2023-03-23T16:15:04;6.93;;;5.15;;
40373;SDS011;26079;45.958;12.492;2023-03-23T16:17:32;6.30;;;5.00;;
40373;SDS011;26079;45.958;12.492;2023-03-23T16:19:58;8.43;;;5.38;;
40373;SDS011;26079;45.958;12.492;2023-03-23T16:22:24;10.48;;;5.38;;
40373;SDS011;26079;45.958;12.492;2023-03-23T16:24:49;7.43;;;5.40;;
40373;SDS011;26079;45.958;12.492;2023-03-23T16:27:15;10.10;;;4.47;;
40373;SDS011;26079;45.958;12.492;2023-03-23T16:29:41;8.13;;;5.35;;
40373;SDS011;26079;45.958;12.492;2023-03-23T16:32:07;6.10;;;5.07;;
40373;SDS011;26079;45.958;12.492;2023-03-23T16:34:32;6.93;;;4.53;;
40373;SDS011;26079;45.958;12.492;2023-03-23T16:37:00;8.93;;;5.22;;